createdAt,value
2018-05-18T00:00:29.464Z,11.53
2018-05-18T00:02:56.228Z,11.10
2018-05-18T00:05:22.940Z,13.40
2018-05-18T00:07:49.659Z,12.13
2018-05-18T00:10:16.380Z,12.80
2018-05-18T00:12:43.088Z,12.90
2018-05-18T00:15:09.792Z,10.60
2018-05-18T00:17:36.497Z,10.73
2018-05-18T00:20:03.185Z,9.90
2018-05-18T00:22:29.896Z,11.87
2018-05-18T00:24:56.583Z,10.57
2018-05-18T00:27:23.288Z,12.17
2018-05-18T00:29:49.973Z,10.30
2018-05-18T00:32:16.701Z,10.60
2018-05-18T00:34:43.402Z,8.20
2018-05-18T00:37:10.313Z,9.20
2018-05-18T00:39:37.004Z,7.70
2018-05-18T00:42:03.687Z,8.43
2018-05-18T00:44:30.460Z,9.27
2018-05-18T00:46:57.183Z,9.73
2018-05-18T00:49:23.899Z,11.80
2018-05-18T00:51:50.579Z,16.23
2018-05-18T00:54:17.331Z,12.80
2018-05-18T00:56:44.060Z,12.17
2018-05-18T00:59:10.759Z,11.43
2018-05-18T01:01:37.453Z,14.80
2018-05-18T01:04:04.172Z,18.57
2018-05-18T01:06:30.863Z,15.83
2018-05-18T01:08:57.552Z,16.47
2018-05-18T01:11:24.257Z,15.17
2018-05-18T01:13:50.936Z,17.10
2018-05-18T01:16:17.651Z,13.80
2018-05-18T01:18:44.331Z,14.03
2018-05-18T01:21:11.032Z,13.73
2018-05-18T01:23:37.795Z,12.97
2018-05-18T01:26:04.475Z,11.23
2018-05-18T01:28:31.176Z,12.73
2018-05-18T01:30:57.851Z,12.90
2018-05-18T01:33:24.563Z,14.23
2018-05-18T01:35:51.244Z,13.73
2018-05-18T01:38:17.945Z,13.63
2018-05-18T01:40:44.735Z,13.07
2018-05-18T01:43:11.423Z,13.30
2018-05-18T01:45:38.212Z,17.70
2018-05-18T01:48:04.901Z,15.50
2018-05-18T01:50:31.600Z,15.83
2018-05-18T01:52:58.279Z,16.80
2018-05-18T01:55:25.000Z,13.53
2018-05-18T01:57:51.687Z,16.03
2018-05-18T02:00:18.396Z,13.00
2018-05-18T02:02:45.087Z,15.70
2018-05-18T02:05:11.889Z,14.27
2018-05-18T02:07:38.573Z,15.90
2018-05-18T02:10:05.308Z,19.27
2018-05-18T02:12:32.000Z,18.83
2018-05-18T02:14:58.708Z,19.57
2018-05-18T02:17:25.410Z,18.63
2018-05-18T02:19:52.128Z,17.80
2018-05-18T02:22:18.871Z,20.97
2018-05-18T02:24:45.560Z,25.10
2018-05-18T02:27:12.416Z,28.83
2018-05-18T02:29:39.107Z,19.20
2018-05-18T02:32:05.916Z,18.70
2018-05-18T02:34:32.599Z,15.30
2018-05-18T02:36:59.299Z,11.87
2018-05-18T02:39:26.008Z,11.33
2018-05-18T02:41:52.810Z,8.63
2018-05-18T02:44:19.483Z,9.53
2018-05-18T02:46:46.183Z,8.67
2018-05-18T02:49:12.883Z,9.03
2018-05-18T02:51:39.568Z,8.47
2018-05-18T02:54:06.255Z,9.70
2018-05-18T02:56:33.046Z,9.73
2018-05-18T02:58:59.752Z,9.67
2018-05-18T03:01:26.543Z,11.00
2018-05-18T03:03:53.219Z,11.70
2018-05-18T03:06:19.920Z,11.90
2018-05-18T03:08:46.787Z,10.23
2018-05-18T03:11:13.467Z,11.00
2018-05-18T03:13:40.191Z,11.23
2018-05-18T03:16:06.933Z,9.20
2018-05-18T03:18:34.387Z,9.00
2018-05-18T03:21:01.111Z,7.53
2018-05-18T03:23:27.792Z,5.40
2018-05-18T03:25:54.486Z,6.60
2018-05-18T03:28:21.159Z,7.23
2018-05-18T03:30:47.864Z,8.90
2018-05-18T03:33:14.555Z,8.10
2018-05-18T03:35:41.402Z,10.00
2018-05-18T03:38:08.128Z,11.70
2018-05-18T03:40:34.980Z,12.87
2018-05-18T03:43:01.700Z,12.07
2018-05-18T03:45:28.384Z,14.00
2018-05-18T03:47:55.090Z,14.70
2018-05-18T03:50:21.782Z,14.90
2018-05-18T03:52:48.480Z,13.87
2018-05-18T03:55:15.191Z,12.17
2018-05-18T03:57:41.879Z,14.80
2018-05-18T04:00:08.590Z,12.57
2018-05-18T04:02:41.102Z,13.67
2018-05-18T04:05:13.571Z,14.13
2018-05-18T04:07:46.044Z,12.90
2018-05-18T04:10:12.812Z,10.57
2018-05-18T04:12:39.416Z,9.60
2018-05-18T04:15:06.141Z,10.80
2018-05-18T04:17:32.832Z,9.60
2018-05-18T04:19:59.562Z,8.23
2018-05-18T04:22:26.243Z,7.90
2018-05-18T04:24:52.927Z,8.80
2018-05-18T04:27:19.632Z,7.20
2018-05-18T04:29:46.316Z,8.10
2018-05-18T04:32:13.060Z,6.60
2018-05-18T04:34:39.833Z,5.30
2018-05-18T04:37:06.695Z,6.17
2018-05-18T04:39:33.371Z,5.90
2018-05-18T04:42:00.149Z,5.40
2018-05-18T04:44:26.839Z,5.93
2018-05-18T04:46:53.519Z,7.33
2018-05-18T04:49:20.228Z,7.83
2018-05-18T04:51:46.933Z,7.73
2018-05-18T04:54:13.643Z,6.23
2018-05-18T04:56:40.334Z,8.43
2018-05-18T04:59:07.033Z,6.70
2018-05-18T05:01:33.728Z,7.40
2018-05-18T05:04:00.403Z,7.53
2018-05-18T05:06:27.979Z,8.07
2018-05-18T05:08:54.660Z,6.47
2018-05-18T05:11:21.352Z,6.90
2018-05-18T05:13:48.039Z,6.57
2018-05-18T05:16:14.764Z,9.40
2018-05-18T05:18:41.492Z,9.97
2018-05-18T05:21:08.200Z,10.47
2018-05-18T05:23:34.935Z,11.30
2018-05-18T05:26:01.596Z,11.60
2018-05-18T05:28:28.279Z,11.43
2018-05-18T05:30:55.029Z,12.80
2018-05-18T05:33:21.835Z,12.00
2018-05-18T05:35:48.535Z,10.67
2018-05-18T05:38:15.856Z,9.83
2018-05-18T05:40:42.536Z,9.30
2018-05-18T05:43:09.244Z,10.73
2018-05-18T05:45:35.933Z,12.10
2018-05-18T05:48:02.624Z,12.80
2018-05-18T05:50:29.435Z,14.13
2018-05-18T05:52:56.217Z,13.27
2018-05-18T05:55:22.899Z,13.03
2018-05-18T05:57:49.641Z,13.30
2018-05-18T06:00:16.378Z,11.53
2018-05-18T06:02:43.086Z,11.77
2018-05-18T06:05:09.831Z,13.67
2018-05-18T06:07:36.576Z,13.43
2018-05-18T06:10:03.281Z,14.50
2018-05-18T06:12:29.951Z,18.00
2018-05-18T06:14:56.744Z,11.07
2018-05-18T06:17:23.437Z,8.27
2018-05-18T06:19:50.141Z,7.13
2018-05-18T06:22:16.891Z,10.10
2018-05-18T06:24:43.604Z,10.10
2018-05-18T06:27:10.341Z,18.27
2018-05-18T06:29:37.034Z,9.40
2018-05-18T06:32:03.719Z,9.40
2018-05-18T06:34:30.522Z,12.93
2018-05-18T06:36:57.131Z,13.00
2018-05-18T06:39:23.966Z,10.80
2018-05-18T06:41:50.720Z,9.00
2018-05-18T06:44:17.665Z,8.90
2018-05-18T06:46:44.387Z,8.87
2018-05-18T06:49:11.072Z,9.00
2018-05-18T06:51:37.748Z,9.67
2018-05-18T06:54:04.451Z,7.60
2018-05-18T06:56:31.177Z,6.30
2018-05-18T06:58:57.848Z,5.33
2018-05-18T07:01:24.611Z,4.87
2018-05-18T07:03:51.379Z,5.40
2018-05-18T07:06:18.079Z,5.20
2018-05-18T07:08:44.779Z,5.90
2018-05-18T07:11:11.530Z,8.57
2018-05-18T07:13:38.233Z,5.13
2018-05-18T07:16:04.930Z,6.37
2018-05-18T07:18:31.623Z,5.73
2018-05-18T07:20:58.303Z,7.33
2018-05-18T07:23:25.058Z,5.60
2018-05-18T07:25:51.760Z,6.70
2018-05-18T07:28:18.581Z,6.07
2018-05-18T07:30:45.369Z,7.60
2018-05-18T07:33:12.051Z,6.90
2018-05-18T07:35:40.343Z,5.60
2018-05-18T07:38:07.059Z,4.90
2018-05-18T07:40:33.779Z,6.30
2018-05-18T07:43:00.468Z,5.77
2018-05-18T07:45:27.171Z,5.90
2018-05-18T07:47:53.879Z,7.10
2018-05-18T07:50:20.629Z,5.63
2018-05-18T07:52:47.341Z,4.67
2018-05-18T07:55:14.068Z,5.20
2018-05-18T07:57:41.604Z,5.97
2018-05-18T08:00:09.712Z,5.70
2018-05-18T08:02:36.868Z,5.33
2018-05-18T08:05:04.397Z,6.40
2018-05-18T08:07:31.097Z,5.50
2018-05-18T08:09:57.818Z,6.40
2018-05-18T08:12:24.519Z,5.97
2018-05-18T08:14:51.260Z,5.40
2018-05-18T08:17:17.956Z,4.83
2018-05-18T08:19:46.824Z,5.83
2018-05-18T08:22:13.505Z,6.93
2018-05-18T08:24:40.923Z,6.70
2018-05-18T08:27:13.395Z,4.63
2018-05-18T08:29:40.075Z,6.00
2018-05-18T08:32:06.820Z,6.50
2018-05-18T08:34:34.296Z,5.73
2018-05-18T08:37:04.337Z,7.00
2018-05-18T08:39:31.056Z,6.10
2018-05-18T08:41:57.839Z,9.03
2018-05-18T08:44:24.700Z,8.63
2018-05-18T08:46:51.449Z,7.00
2018-05-18T08:49:18.132Z,5.90
2018-05-18T08:51:44.839Z,5.77
2018-05-18T08:54:11.571Z,5.90
2018-05-18T08:56:38.268Z,5.10
2018-05-18T08:59:04.945Z,6.00
2018-05-18T09:01:31.627Z,6.07
2018-05-18T09:03:58.339Z,5.80
2018-05-18T09:06:25.028Z,6.20
2018-05-18T09:08:51.983Z,5.10
2018-05-18T09:11:18.580Z,8.23
2018-05-18T09:13:45.296Z,5.70
2018-05-18T09:16:11.968Z,5.87
2018-05-18T09:18:38.671Z,6.00
2018-05-18T09:21:05.385Z,5.47
2018-05-18T09:23:32.091Z,6.43
2018-05-18T09:25:58.781Z,5.47
2018-05-18T09:28:25.468Z,6.07
2018-05-18T09:30:52.199Z,6.33
2018-05-18T09:33:18.918Z,5.90
2018-05-18T09:35:45.606Z,6.10
2018-05-18T09:38:12.308Z,5.47
2018-05-18T09:40:39.012Z,5.97
2018-05-18T09:43:05.684Z,5.60
2018-05-18T09:45:32.411Z,5.37
2018-05-18T09:47:59.089Z,5.47
2018-05-18T09:50:25.781Z,5.10
2018-05-18T09:52:52.481Z,5.47
2018-05-18T09:55:19.284Z,5.40
2018-05-18T09:57:45.861Z,4.67
2018-05-18T10:00:12.703Z,5.33
2018-05-18T10:02:39.448Z,5.23
2018-05-18T10:05:06.120Z,4.73
2018-05-18T10:07:32.824Z,5.43
2018-05-18T10:09:59.527Z,5.10
2018-05-18T10:12:26.279Z,4.87
2018-05-18T10:14:53.327Z,5.40
2018-05-18T10:17:19.996Z,3.83
2018-05-18T10:19:46.705Z,4.10
2018-05-18T10:22:13.383Z,4.87
2018-05-18T10:24:40.080Z,5.13
2018-05-18T10:27:06.842Z,5.53
2018-05-18T10:29:33.499Z,5.10
2018-05-18T10:32:00.192Z,5.33
2018-05-18T10:34:26.859Z,5.40
2018-05-18T10:36:53.653Z,5.23
2018-05-18T10:39:20.330Z,5.17
2018-05-18T10:41:47.033Z,5.97
2018-05-18T10:44:13.713Z,5.87
2018-05-18T10:46:40.415Z,5.20
2018-05-18T10:49:07.137Z,5.40
2018-05-18T10:51:33.848Z,5.00
2018-05-18T10:54:00.547Z,5.83
2018-05-18T10:56:27.280Z,6.10
2018-05-18T10:58:53.986Z,5.90
2018-05-18T11:01:20.679Z,4.80
2018-05-18T11:03:47.390Z,5.40
2018-05-18T11:06:14.117Z,6.07
2018-05-18T11:08:40.790Z,4.93
2018-05-18T11:11:07.492Z,5.13
2018-05-18T11:13:34.210Z,5.00
2018-05-18T11:16:00.908Z,4.90
2018-05-18T11:18:27.617Z,5.47
2018-05-18T11:20:54.302Z,5.40
2018-05-18T11:23:21.020Z,5.43
2018-05-18T11:25:47.767Z,5.53
2018-05-18T11:28:14.490Z,6.20
2018-05-18T11:30:41.198Z,5.40
2018-05-18T11:33:07.925Z,5.40
2018-05-18T11:35:34.592Z,5.90
2018-05-18T11:38:01.311Z,6.10
2018-05-18T11:40:28.000Z,5.60
2018-05-18T11:42:54.704Z,6.60
2018-05-18T11:45:21.415Z,5.83
2018-05-18T11:47:48.112Z,5.30
2018-05-18T11:50:14.838Z,5.27
2018-05-18T11:52:41.540Z,6.40
2018-05-18T11:55:08.241Z,5.00
2018-05-18T11:57:34.928Z,5.23
2018-05-18T12:00:01.624Z,5.67
2018-05-18T12:02:28.351Z,4.80
2018-05-18T12:04:55.024Z,4.37
2018-05-18T12:07:21.691Z,5.87
2018-05-18T12:09:48.424Z,5.07
2018-05-18T12:12:15.103Z,5.13
2018-05-18T12:14:41.825Z,5.70
2018-05-18T12:17:08.514Z,4.33
2018-05-18T12:19:35.182Z,5.17
2018-05-18T12:22:01.896Z,5.53
2018-05-18T12:24:28.655Z,5.47
2018-05-18T12:26:55.352Z,5.37
2018-05-18T12:29:22.076Z,5.23
2018-05-18T12:31:48.783Z,6.47
2018-05-18T12:34:15.447Z,5.33
2018-05-18T12:36:42.435Z,5.93
2018-05-18T12:39:09.147Z,5.10
2018-05-18T12:41:35.855Z,5.27
2018-05-18T12:44:02.552Z,5.80
2018-05-18T12:46:29.247Z,6.83
2018-05-18T12:48:55.970Z,5.70
2018-05-18T12:51:22.656Z,5.50
2018-05-18T12:53:49.382Z,6.50
2018-05-18T12:56:16.094Z,5.50
2018-05-18T12:58:42.796Z,7.87
2018-05-18T13:01:09.484Z,7.00
2018-05-18T13:03:36.179Z,6.63
2018-05-18T13:06:02.935Z,5.87
2018-05-18T13:08:29.635Z,6.30
2018-05-18T13:10:56.326Z,8.73
2018-05-18T13:13:23.016Z,7.20
2018-05-18T13:15:49.801Z,5.80
2018-05-18T13:18:16.410Z,6.40
2018-05-18T13:20:43.124Z,6.80
2018-05-18T13:23:09.921Z,6.70
2018-05-18T13:25:36.599Z,6.80
2018-05-18T13:28:03.292Z,6.13
2018-05-18T13:30:30.174Z,9.67
2018-05-18T13:32:56.835Z,9.23
2018-05-18T13:35:23.541Z,7.07
2018-05-18T13:37:50.245Z,6.17
2018-05-18T13:40:16.927Z,10.57
2018-05-18T13:42:43.638Z,12.93
2018-05-18T13:45:10.567Z,8.10
2018-05-18T13:47:37.162Z,6.53
2018-05-18T13:50:03.876Z,6.40
2018-05-18T13:52:30.624Z,6.20
2018-05-18T13:54:57.349Z,5.73
2018-05-18T13:57:24.047Z,6.33
2018-05-18T13:59:50.744Z,5.17
2018-05-18T14:02:17.459Z,6.60
2018-05-18T14:04:44.191Z,6.10
2018-05-18T14:07:10.927Z,5.80
2018-05-18T14:09:37.613Z,6.23
2018-05-18T14:12:04.367Z,7.00
2018-05-18T14:14:31.055Z,5.27
2018-05-18T14:16:57.749Z,6.60
2018-05-18T14:19:24.482Z,5.83
2018-05-18T14:21:51.177Z,5.13
2018-05-18T14:24:17.875Z,6.27
2018-05-18T14:26:44.580Z,5.97
2018-05-18T14:29:11.312Z,5.70
2018-05-18T14:31:38.028Z,6.30
2018-05-18T14:34:04.868Z,6.60
2018-05-18T14:36:31.580Z,5.90
2018-05-18T14:38:58.317Z,6.00
2018-05-18T14:41:25.017Z,5.93
2018-05-18T14:43:51.787Z,6.57
2018-05-18T14:46:18.424Z,5.90
2018-05-18T14:48:45.140Z,5.37
2018-05-18T14:51:11.958Z,6.03
2018-05-18T14:53:38.747Z,7.33
2018-05-18T14:56:05.423Z,5.80
2018-05-18T14:58:32.104Z,6.33
2018-05-18T15:00:58.811Z,6.87
2018-05-18T15:03:25.495Z,8.23
2018-05-18T15:05:52.203Z,7.23
2018-05-18T15:08:18.880Z,6.27
2018-05-18T15:10:45.659Z,6.20
2018-05-18T15:13:12.345Z,5.87
2018-05-18T15:15:39.050Z,5.37
2018-05-18T15:18:05.743Z,5.77
2018-05-18T15:20:32.524Z,5.03
2018-05-18T15:22:59.211Z,6.70
2018-05-18T15:25:25.887Z,6.33
2018-05-18T15:27:52.598Z,5.47
2018-05-18T15:30:19.285Z,5.50
2018-05-18T15:32:46.000Z,5.10
2018-05-18T15:35:12.685Z,6.27
2018-05-18T15:37:39.572Z,6.70
2018-05-18T15:40:06.295Z,6.03
2018-05-18T15:42:33.052Z,6.67
2018-05-18T15:44:59.715Z,6.40
2018-05-18T15:47:26.406Z,6.53
2018-05-18T15:49:53.110Z,5.43
2018-05-18T15:52:19.787Z,6.10
2018-05-18T15:54:46.509Z,6.00
2018-05-18T15:57:13.215Z,6.40
2018-05-18T15:59:39.916Z,4.83
2018-05-18T16:02:06.656Z,5.50
2018-05-18T16:04:34.724Z,5.93
2018-05-18T16:07:01.485Z,5.83
2018-05-18T16:09:28.944Z,5.00
2018-05-18T16:11:55.668Z,5.67
2018-05-18T16:14:22.387Z,5.33
2018-05-18T16:16:49.122Z,6.30
2018-05-18T16:19:15.851Z,4.93
2018-05-18T16:21:42.614Z,5.27
2018-05-18T16:24:09.334Z,5.13
2018-05-18T16:26:36.056Z,5.60
2018-05-18T16:29:02.760Z,5.80
2018-05-18T16:31:29.515Z,5.83
2018-05-18T16:33:56.800Z,6.17
2018-05-18T16:36:23.525Z,5.63
2018-05-18T16:38:50.213Z,5.53
2018-05-18T16:41:17.288Z,6.13
2018-05-18T16:43:44.033Z,4.90
2018-05-18T16:46:10.752Z,5.57
2018-05-18T16:48:37.479Z,5.27
2018-05-18T16:51:04.188Z,5.97
2018-05-18T16:53:32.849Z,6.20
2018-05-18T16:55:59.746Z,5.87
2018-05-18T16:58:26.471Z,7.00
2018-05-18T17:00:53.195Z,4.60
2018-05-18T17:03:19.961Z,4.93
2018-05-18T17:05:46.696Z,5.93
2018-05-18T17:08:14.103Z,4.87
2018-05-18T17:10:40.801Z,6.27
2018-05-18T17:13:08.017Z,5.27
2018-05-18T17:15:34.996Z,5.50
2018-05-18T17:18:01.667Z,5.97
2018-05-18T17:20:28.366Z,5.00
2018-05-18T17:22:55.105Z,6.30
2018-05-18T17:25:21.800Z,5.70
2018-05-18T17:27:48.493Z,5.27
2018-05-18T17:30:15.224Z,6.80
2018-05-18T17:32:41.916Z,5.13
2018-05-18T17:35:09.044Z,6.25
2018-05-18T17:37:35.799Z,7.17
2018-05-18T17:40:02.525Z,5.67
2018-05-18T17:42:29.286Z,5.77
2018-05-18T17:44:55.969Z,7.00
2018-05-18T17:47:22.860Z,6.80
2018-05-18T17:49:49.613Z,6.07
2018-05-18T17:52:16.340Z,5.17
2018-05-18T17:54:43.096Z,6.47
2018-05-18T17:57:09.802Z,6.10
2018-05-18T17:59:36.517Z,5.87
2018-05-18T18:02:03.253Z,6.67
2018-05-18T18:04:29.973Z,4.93
2018-05-18T18:06:56.679Z,5.83
2018-05-18T18:09:23.397Z,5.20
2018-05-18T18:11:50.149Z,5.67
2018-05-18T18:14:16.869Z,5.47
2018-05-18T18:16:43.593Z,4.90
2018-05-18T18:19:10.321Z,6.20
2018-05-18T18:21:37.033Z,5.00
2018-05-18T18:24:03.761Z,6.03
2018-05-18T18:26:30.473Z,5.10
2018-05-18T18:28:57.247Z,5.50
2018-05-18T18:31:23.982Z,5.87
2018-05-18T18:33:51.622Z,4.90
2018-05-18T18:36:18.358Z,5.40
2018-05-18T18:38:45.084Z,5.40
2018-05-18T18:41:11.843Z,4.50
2018-05-18T18:43:38.608Z,5.90
2018-05-18T18:46:05.339Z,5.27
2018-05-18T18:48:32.042Z,5.30
2018-05-18T18:50:58.760Z,5.40
2018-05-18T18:53:25.490Z,5.40
2018-05-18T18:55:53.064Z,5.07
2018-05-18T18:58:19.832Z,6.70
2018-05-18T19:00:46.541Z,5.20
2018-05-18T19:03:13.287Z,5.40
2018-05-18T19:05:39.985Z,5.07
2018-05-18T19:08:06.721Z,5.03
2018-05-18T19:10:33.525Z,4.63
2018-05-18T19:13:00.277Z,4.83
2018-05-18T19:15:27.223Z,5.17
2018-05-18T19:17:53.891Z,4.93
2018-05-18T19:20:20.616Z,4.40
2018-05-18T19:22:47.399Z,4.50
2018-05-18T19:25:14.210Z,4.77
2018-05-18T19:27:40.941Z,5.17
2018-05-18T19:30:07.687Z,5.43
2018-05-18T19:32:34.415Z,6.03
2018-05-18T19:35:01.119Z,5.83
2018-05-18T19:37:27.852Z,5.17
2018-05-18T19:39:54.564Z,5.30
2018-05-18T19:42:21.291Z,5.23
2018-05-18T19:44:48.129Z,5.07
2018-05-18T19:47:14.853Z,5.40
2018-05-18T19:49:41.654Z,5.62
2018-05-18T19:52:08.393Z,5.40
2018-05-18T19:54:35.149Z,5.03
2018-05-18T19:57:01.857Z,5.77
2018-05-18T19:59:28.584Z,5.50
2018-05-18T20:01:55.289Z,5.27
2018-05-18T20:04:21.988Z,4.57
2018-05-18T20:06:48.692Z,6.33
2018-05-18T20:09:15.412Z,5.10
2018-05-18T20:11:42.113Z,4.90
2018-05-18T20:14:08.824Z,6.27
2018-05-18T20:16:35.517Z,5.20
2018-05-18T20:19:02.245Z,4.97
2018-05-18T20:21:28.935Z,4.73
2018-05-18T20:23:55.642Z,5.10
2018-05-18T20:26:22.489Z,4.50
2018-05-18T20:28:49.177Z,5.50
2018-05-18T20:31:15.878Z,4.80
2018-05-18T20:33:42.571Z,4.50
2018-05-18T20:36:09.296Z,4.33
2018-05-18T20:38:36.008Z,5.23
2018-05-18T20:41:02.720Z,5.20
2018-05-18T20:43:29.405Z,4.57
2018-05-18T20:45:56.115Z,5.37
2018-05-18T20:48:22.830Z,4.43
2018-05-18T20:50:49.528Z,5.20
2018-05-18T20:53:16.225Z,4.73
2018-05-18T20:55:42.931Z,4.73
2018-05-18T20:58:09.644Z,5.57
2018-05-18T21:00:36.354Z,5.47
2018-05-18T21:03:03.048Z,4.53
2018-05-18T21:05:29.773Z,5.00
2018-05-18T21:07:56.464Z,4.90
2018-05-18T21:10:23.176Z,5.33
2018-05-18T21:12:50.074Z,5.40
2018-05-18T21:15:16.762Z,5.93
2018-05-18T21:17:43.631Z,5.33
2018-05-18T21:20:10.342Z,7.50
2018-05-18T21:22:37.076Z,6.40
2018-05-18T21:25:03.783Z,6.63
2018-05-18T21:27:30.504Z,6.63
2018-05-18T21:29:57.191Z,6.13
2018-05-18T21:32:23.976Z,5.87
2018-05-18T21:34:50.673Z,5.90
2018-05-18T21:37:17.408Z,6.00
2018-05-18T21:39:44.096Z,5.47
2018-05-18T21:42:10.821Z,5.23
2018-05-18T21:44:37.540Z,5.50
2018-05-18T21:47:04.357Z,6.10
2018-05-18T21:49:31.060Z,6.13
2018-05-18T21:51:57.784Z,5.70
2018-05-18T21:54:24.667Z,5.63
2018-05-18T21:56:51.358Z,5.10
2018-05-18T21:59:18.040Z,5.00
2018-05-18T22:01:44.754Z,4.97
2018-05-18T22:04:11.456Z,5.30
2018-05-18T22:06:38.312Z,6.33
2018-05-18T22:09:05.137Z,5.00
2018-05-18T22:11:31.849Z,5.60
2018-05-18T22:13:58.584Z,5.93
2018-05-18T22:16:25.264Z,4.73
2018-05-18T22:18:51.965Z,6.60
2018-05-18T22:21:18.688Z,5.37
2018-05-18T22:23:45.389Z,5.50
2018-05-18T22:26:12.107Z,5.40
2018-05-18T22:28:38.887Z,6.00
2018-05-18T22:31:05.589Z,6.43
2018-05-18T22:33:32.287Z,5.30
2018-05-18T22:35:58.964Z,5.90
2018-05-18T22:38:25.677Z,6.10
2018-05-18T22:40:52.456Z,5.30
2018-05-18T22:43:19.171Z,5.50
2018-05-18T22:45:45.861Z,5.47
2018-05-18T22:48:12.572Z,5.00
2018-05-18T22:50:39.252Z,4.93
2018-05-18T22:53:06.143Z,5.53
2018-05-18T22:55:32.899Z,4.60
2018-05-18T22:57:59.596Z,4.83
2018-05-18T23:00:26.307Z,5.43
2018-05-18T23:02:52.983Z,5.73
2018-05-18T23:05:19.687Z,5.50
2018-05-18T23:07:46.375Z,5.17
2018-05-18T23:10:13.091Z,5.37
2018-05-18T23:12:39.789Z,6.23
2018-05-18T23:15:06.495Z,5.30
2018-05-18T23:17:33.213Z,6.00
2018-05-18T23:19:59.902Z,4.70
2018-05-18T23:22:26.592Z,5.77
2018-05-18T23:24:53.260Z,5.37
2018-05-18T23:27:19.960Z,5.77
2018-05-18T23:29:46.651Z,5.50
2018-05-18T23:32:13.362Z,5.70
2018-05-18T23:34:40.147Z,6.30
2018-05-18T23:37:06.852Z,6.57
2018-05-18T23:39:33.533Z,5.07
2018-05-18T23:42:00.280Z,5.50
2018-05-18T23:44:26.955Z,5.03
2018-05-18T23:46:53.656Z,6.07
2018-05-18T23:49:20.327Z,6.67
2018-05-18T23:51:47.028Z,5.80
2018-05-18T23:54:13.745Z,6.37
2018-05-18T23:56:40.570Z,7.23
2018-05-18T23:59:07.281Z,6.47
